createdAt,value
2022-08-03T00:03:30.259Z,24.2
2022-08-03T00:18:30.087Z,24.3
2022-08-03T00:33:30.121Z,24
2022-08-03T00:48:33.489Z,23.8
2022-08-03T01:03:30.277Z,23.5
2022-08-03T01:18:29.970Z,23.1
2022-08-03T01:33:30.236Z,22.9
2022-08-03T01:48:29.921Z,22.8
2022-08-03T02:03:29.963Z,22.6
2022-08-03T02:18:29.855Z,22.3
2022-08-03T02:33:29.868Z,22.4
2022-08-03T02:48:29.802Z,22.2
2022-08-03T03:03:29.826Z,22.1
2022-08-03T03:18:29.742Z,22.1
2022-08-03T03:33:29.755Z,21.7
2022-08-03T03:48:29.687Z,21.4
2022-08-03T04:03:29.714Z,21.2
2022-08-03T04:18:29.740Z,20.9
2022-08-03T04:33:30.489Z,21
2022-08-03T04:48:29.581Z,21.2
2022-08-03T05:03:29.584Z,22.6
2022-08-03T05:18:29.527Z,25.6
2022-08-03T05:33:29.530Z,27.9
2022-08-03T05:48:29.472Z,29.2
2022-08-03T06:03:29.479Z,30.8
2022-08-03T06:18:29.425Z,32.2
2022-08-03T06:34:30.571Z,33.8
2022-08-03T06:48:29.397Z,34.8
2022-08-03T07:03:29.375Z,35.5
2022-08-03T07:18:29.992Z,35.4
2022-08-03T07:33:29.322Z,36.3
2022-08-03T07:48:29.290Z,36.8
2022-08-03T08:03:29.275Z,37.7
2022-08-03T08:18:29.215Z,37.2
2022-08-03T08:33:47.936Z,38.7
2022-08-03T08:48:29.169Z,39.9
2022-08-03T09:03:30.785Z,41.1
2022-08-03T09:18:32.313Z,41.2
2022-08-03T09:33:36.120Z,41.5
2022-08-03T09:48:29.075Z,40.2
2022-08-03T10:03:34.101Z,37
2022-08-03T10:18:29.032Z,36.6
2022-08-03T10:33:50.805Z,36.7
2022-08-03T11:03:28.965Z,34.5
2022-08-03T11:18:28.931Z,33.3
2022-08-03T11:33:28.905Z,32.8
2022-08-03T11:48:28.883Z,32.7
2022-08-03T12:03:28.960Z,32.6
2022-08-03T12:18:28.829Z,32.9
2022-08-03T12:33:28.825Z,33.2
2022-08-03T12:48:29.696Z,33.4
2022-08-03T13:03:39.186Z,33.5
2022-08-03T13:18:28.718Z,33.7
2022-08-03T13:33:28.736Z,34
2022-08-03T13:48:36.743Z,34.1
2022-08-03T14:03:28.683Z,34.3
2022-08-03T14:18:33.787Z,34.6
2022-08-03T14:33:28.624Z,34.8
2022-08-03T14:49:02.572Z,35
2022-08-03T15:03:28.571Z,35.1
2022-08-03T15:18:28.522Z,35.3
2022-08-03T15:33:28.523Z,35.3
2022-08-03T15:48:28.464Z,35.3
2022-08-03T16:03:28.449Z,35.3
2022-08-03T16:18:28.414Z,35.6
2022-08-03T16:33:28.417Z,35.5
2022-08-03T16:48:28.360Z,35.4
2022-08-03T17:03:28.337Z,35.3
2022-08-03T17:18:28.315Z,35.5
2022-08-03T17:33:35.467Z,35.5
2022-08-03T17:48:28.259Z,35.4
2022-08-03T18:03:28.290Z,35.3
2022-08-03T18:18:32.174Z,35.2
2022-08-03T18:34:20.337Z,34.5
2022-08-03T18:48:28.160Z,34.1
2022-08-03T19:03:42.715Z,33.7
2022-08-03T19:18:28.099Z,33.2
2022-08-03T19:33:29.930Z,32.8
2022-08-03T19:48:28.064Z,32.5
2022-08-03T20:03:28.051Z,32.1
2022-08-03T20:18:27.986Z,31.7
2022-08-03T20:33:45.856Z,31.7
2022-08-03T20:48:27.971Z,31.4
2022-08-03T21:03:40.964Z,31.1
2022-08-03T21:18:27.914Z,30.9
2022-08-03T21:33:27.900Z,30.7
2022-08-03T21:48:27.819Z,30.5
2022-08-03T22:03:27.842Z,30
2022-08-03T22:18:27.775Z,29.7
2022-08-03T22:33:27.817Z,29.4
2022-08-03T22:48:27.719Z,29.2
2022-08-03T23:04:00.713Z,28.8
2022-08-03T23:18:27.653Z,28.6
2022-08-03T23:33:27.681Z,28.3
2022-08-03T23:48:27.601Z,27.9
